sensor_id;sensor_type;location;lat;lon;timestamp;P1;durP1;ratioP1;P2;durP2;ratioP2
56724;SDS011;42608;52.776;6.968;2023-07-22T07:23:54;24.52;;;18.70;;
56724;SDS011;42608;52.776;6.968;2023-07-22T07:26:20;24.13;;;18.17;;
56724;SDS011;42608;52.776;6.968;2023-07-22T07:28:47;23.33;;;18.25;;
56724;SDS011;42608;52.776;6.968;2023-07-22T07:31:13;22.58;;;18.05;;
56724;SDS011;42608;52.776;6.968;2023-07-22T07:33:41;26.60;;;19.48;;
56724;SDS011;42608;52.776;6.968;2023-07-22T07:36:10;22.67;;;19.17;;
56724;SDS011;42608;52.776;6.968;2023-07-22T07:38:36;25.75;;;18.80;;
56724;SDS011;42608;52.776;6.968;2023-07-22T07:41:02;23.75;;;19.55;;
56724;SDS011;42608;52.776;6.968;2023-07-22T07:43:36;23.83;;;18.52;;
56724;SDS011;42608;52.776;6.968;2023-07-22T07:49:00;25.48;;;18.13;;
56724;SDS011;42608;52.776;6.968;2023-07-22T07:51:28;26.02;;;18.95;;
56724;SDS011;42608;52.776;6.968;2023-07-22T07:53:56;23.90;;;19.00;;
56724;SDS011;42608;52.776;6.968;2023-07-22T07:56:25;20.85;;;17.63;;
56724;SDS011;42608;52.776;6.968;2023-07-22T07:58:52;21.55;;;18.33;;
56724;SDS011;42608;52.776;6.968;2023-07-22T08:01:19;20.48;;;16.52;;
56724;SDS011;42608;52.776;6.968;2023-07-22T08:03:46;22.88;;;17.38;;
56724;SDS011;42608;52.776;6.968;2023-07-22T08:06:12;20.77;;;17.17;;
56724;SDS011;42608;52.776;6.968;2023-07-22T08:08:39;20.27;;;17.67;;
56724;SDS011;42608;52.776;6.968;2023-07-22T08:11:08;21.25;;;16.00;;
56724;SDS011;42608;52.776;6.968;2023-07-22T08:13:39;21.40;;;16.30;;
56724;SDS011;42608;52.776;6.968;2023-07-22T08:16:06;21.17;;;17.08;;
56724;SDS011;42608;52.776;6.968;2023-07-22T08:21:05;18.55;;;15.25;;
56724;SDS011;42608;52.776;6.968;2023-07-22T08:23:34;18.75;;;15.10;;
56724;SDS011;42608;52.776;6.968;2023-07-22T08:26:01;16.92;;;15.13;;
56724;SDS011;42608;52.776;6.968;2023-07-22T08:28:29;18.63;;;14.73;;
56724;SDS011;42608;52.776;6.968;2023-07-22T08:30:55;18.90;;;14.13;;
56724;SDS011;42608;52.776;6.968;2023-07-22T08:33:31;15.68;;;13.82;;
56724;SDS011;42608;52.776;6.968;2023-07-22T08:35:56;16.80;;;13.70;;
56724;SDS011;42608;52.776;6.968;2023-07-22T08:38:22;16.27;;;14.57;;
56724;SDS011;42608;52.776;6.968;2023-07-22T08:40:49;15.93;;;13.93;;
56724;SDS011;42608;52.776;6.968;2023-07-22T08:43:21;16.40;;;14.50;;
56724;SDS011;42608;52.776;6.968;2023-07-22T08:45:48;17.75;;;14.02;;
56724;SDS011;42608;52.776;6.968;2023-07-22T08:48:16;16.52;;;12.00;;
56724;SDS011;42608;52.776;6.968;2023-07-22T08:55:46;12.65;;;11.20;;
56724;SDS011;42608;52.776;6.968;2023-07-22T08:58:13;13.45;;;11.05;;
56724;SDS011;42608;52.776;6.968;2023-07-22T09:00:39;15.93;;;10.32;;
56724;SDS011;42608;52.776;6.968;2023-07-22T09:03:05;12.38;;;10.85;;
56724;SDS011;42608;52.776;6.968;2023-07-22T09:05:37;10.88;;;9.70;;
56724;SDS011;42608;52.776;6.968;2023-07-22T09:08:07;15.85;;;11.65;;
56724;SDS011;42608;52.776;6.968;2023-07-22T09:10:33;13.32;;;9.60;;
56724;SDS011;42608;52.776;6.968;2023-07-22T09:13:02;10.07;;;9.07;;
56724;SDS011;42608;52.776;6.968;2023-07-22T09:15:34;11.88;;;9.07;;
56724;SDS011;42608;52.776;6.968;2023-07-22T09:18:01;11.95;;;9.50;;
56724;SDS011;42608;52.776;6.968;2023-07-22T09:20:31;11.02;;;9.82;;
56724;SDS011;42608;52.776;6.968;2023-07-22T09:22:58;10.07;;;8.82;;
56724;SDS011;42608;52.776;6.968;2023-07-22T09:25:25;10.52;;;9.00;;
56724;SDS011;42608;52.776;6.968;2023-07-22T09:27:53;12.25;;;8.90;;
56724;SDS011;42608;52.776;6.968;2023-07-22T09:30:36;12.63;;;8.57;;
56724;SDS011;42608;52.776;6.968;2023-07-22T09:33:07;11.40;;;9.07;;
56724;SDS011;42608;52.776;6.968;2023-07-22T09:35:54;7.97;;;7.18;;
56724;SDS011;42608;52.776;6.968;2023-07-22T09:38:24;11.63;;;7.97;;
56724;SDS011;42608;52.776;6.968;2023-07-22T09:40:51;10.32;;;8.48;;
56724;SDS011;42608;52.776;6.968;2023-07-22T09:43:17;10.38;;;8.05;;
56724;SDS011;42608;52.776;6.968;2023-07-22T09:45:46;9.40;;;7.82;;
56724;SDS011;42608;52.776;6.968;2023-07-22T09:48:12;10.02;;;8.40;;
56724;SDS011;42608;52.776;6.968;2023-07-22T09:50:38;12.00;;;9.35;;
56724;SDS011;42608;52.776;6.968;2023-07-22T09:53:04;13.25;;;9.20;;
56724;SDS011;42608;52.776;6.968;2023-07-22T09:55:30;12.18;;;9.88;;
56724;SDS011;42608;52.776;6.968;2023-07-22T09:58:04;11.15;;;10.05;;
56724;SDS011;42608;52.776;6.968;2023-07-22T10:00:31;11.73;;;9.70;;
56724;SDS011;42608;52.776;6.968;2023-07-22T10:03:01;11.85;;;10.02;;
56724;SDS011;42608;52.776;6.968;2023-07-22T10:05:30;11.77;;;10.40;;
56724;SDS011;42608;52.776;6.968;2023-07-22T10:08:02;9.77;;;8.77;;
56724;SDS011;42608;52.776;6.968;2023-07-22T10:10:31;16.52;;;9.88;;
56724;SDS011;42608;52.776;6.968;2023-07-22T10:13:03;11.77;;;8.50;;
56724;SDS011;42608;52.776;6.968;2023-07-22T10:15:30;9.45;;;8.20;;
56724;SDS011;42608;52.776;6.968;2023-07-22T10:17:58;12.60;;;8.55;;
56724;SDS011;42608;52.776;6.968;2023-07-22T10:20:25;11.07;;;8.75;;
56724;SDS011;42608;52.776;6.968;2023-07-22T10:22:51;10.35;;;7.75;;
56724;SDS011;42608;52.776;6.968;2023-07-22T10:25:18;8.35;;;6.88;;
56724;SDS011;42608;52.776;6.968;2023-07-22T10:27:45;9.93;;;7.00;;
56724;SDS011;42608;52.776;6.968;2023-07-22T10:30:12;7.75;;;6.55;;
56724;SDS011;42608;52.776;6.968;2023-07-22T10:32:46;10.98;;;7.03;;
56724;SDS011;42608;52.776;6.968;2023-07-22T10:38:15;8.18;;;6.57;;
56724;SDS011;42608;52.776;6.968;2023-07-22T10:40:49;8.02;;;7.22;;
56724;SDS011;42608;52.776;6.968;2023-07-22T10:43:17;7.40;;;6.60;;
56724;SDS011;42608;52.776;6.968;2023-07-22T10:45:50;9.80;;;7.22;;
56724;SDS011;42608;52.776;6.968;2023-07-22T10:48:17;10.65;;;7.22;;
56724;SDS011;42608;52.776;6.968;2023-07-22T10:50:45;9.60;;;6.72;;
56724;SDS011;42608;52.776;6.968;2023-07-22T11:07:03;9.43;;;6.82;;
56724;SDS011;42608;52.776;6.968;2023-07-22T11:09:33;10.57;;;7.10;;
56724;SDS011;42608;52.776;6.968;2023-07-22T11:12:03;10.85;;;6.90;;
56724;SDS011;42608;52.776;6.968;2023-07-22T11:14:51;9.57;;;7.97;;
56724;SDS011;42608;52.776;6.968;2023-07-22T11:17:30;9.43;;;6.57;;
56724;SDS011;42608;52.776;6.968;2023-07-22T11:19:57;10.38;;;7.00;;
56724;SDS011;42608;52.776;6.968;2023-07-22T11:22:24;7.30;;;6.57;;
56724;SDS011;42608;52.776;6.968;2023-07-22T11:24:50;9.25;;;7.30;;
56724;SDS011;42608;52.776;6.968;2023-07-22T11:27:17;8.60;;;6.93;;
56724;SDS011;42608;52.776;6.968;2023-07-22T11:29:44;7.72;;;7.03;;
56724;SDS011;42608;52.776;6.968;2023-07-22T11:32:16;10.98;;;8.40;;
56724;SDS011;42608;52.776;6.968;2023-07-22T11:34:44;10.02;;;7.97;;
56724;SDS011;42608;52.776;6.968;2023-07-22T11:37:10;11.43;;;8.35;;
56724;SDS011;42608;52.776;6.968;2023-07-22T11:39:36;12.27;;;8.13;;
56724;SDS011;42608;52.776;6.968;2023-07-22T11:42:03;10.18;;;7.45;;
56724;SDS011;42608;52.776;6.968;2023-07-22T11:44:30;11.98;;;8.63;;
56724;SDS011;42608;52.776;6.968;2023-07-22T11:47:00;9.98;;;8.05;;
56724;SDS011;42608;52.776;6.968;2023-07-22T12:04:52;14.13;;;11.93;;
56724;SDS011;42608;52.776;6.968;2023-07-22T12:07:25;14.70;;;10.73;;
56724;SDS011;42608;52.776;6.968;2023-07-22T12:09:56;13.38;;;10.80;;
56724;SDS011;42608;52.776;6.968;2023-07-22T12:12:39;11.98;;;10.40;;
56724;SDS011;42608;52.776;6.968;2023-07-22T12:15:15;13.25;;;10.93;;
56724;SDS011;42608;52.776;6.968;2023-07-22T12:17:53;11.95;;;10.55;;
56724;SDS011;42608;52.776;6.968;2023-07-22T12:20:22;9.77;;;8.75;;
56724;SDS011;42608;52.776;6.968;2023-07-22T12:25:20;11.38;;;8.15;;
56724;SDS011;42608;52.776;6.968;2023-07-22T12:27:46;10.25;;;8.52;;
56724;SDS011;42608;52.776;6.968;2023-07-22T12:30:20;9.20;;;8.18;;
56724;SDS011;42608;52.776;6.968;2023-07-22T12:32:47;10.13;;;8.57;;
56724;SDS011;42608;52.776;6.968;2023-07-22T12:35:18;8.55;;;7.75;;
56724;SDS011;42608;52.776;6.968;2023-07-22T12:37:47;9.63;;;8.63;;
56724;SDS011;42608;52.776;6.968;2023-07-22T12:40:13;9.35;;;8.50;;
56724;SDS011;42608;52.776;6.968;2023-07-22T12:42:39;11.15;;;9.95;;
56724;SDS011;42608;52.776;6.968;2023-07-22T12:45:05;8.93;;;8.13;;
56724;SDS011;42608;52.776;6.968;2023-07-22T12:47:31;9.73;;;8.70;;
56724;SDS011;42608;52.776;6.968;2023-07-22T12:49:57;9.93;;;8.93;;
56724;SDS011;42608;52.776;6.968;2023-07-22T12:52:23;9.90;;;8.68;;
56724;SDS011;42608;52.776;6.968;2023-07-22T12:54:48;9.63;;;8.63;;
56724;SDS011;42608;52.776;6.968;2023-07-22T12:57:14;10.27;;;8.43;;
56724;SDS011;42608;52.776;6.968;2023-07-22T12:59:46;8.48;;;7.68;;
56724;SDS011;42608;52.776;6.968;2023-07-22T13:02:17;10.30;;;9.30;;
56724;SDS011;42608;52.776;6.968;2023-07-22T13:04:43;11.85;;;8.88;;
56724;SDS011;42608;52.776;6.968;2023-07-22T13:07:09;9.25;;;8.35;;
56724;SDS011;42608;52.776;6.968;2023-07-22T13:09:34;9.05;;;8.18;;
56724;SDS011;42608;52.776;6.968;2023-07-22T13:12:00;9.77;;;8.88;;
56724;SDS011;42608;52.776;6.968;2023-07-22T13:14:26;9.20;;;8.32;;
56724;SDS011;42608;52.776;6.968;2023-07-22T13:16:51;9.80;;;8.93;;
56724;SDS011;42608;52.776;6.968;2023-07-22T13:19:17;9.65;;;8.65;;
56724;SDS011;42608;52.776;6.968;2023-07-22T13:21:43;9.85;;;8.85;;
56724;SDS011;42608;52.776;6.968;2023-07-22T13:24:08;8.48;;;7.57;;
56724;SDS011;42608;52.776;6.968;2023-07-22T13:26:34;8.30;;;6.93;;
56724;SDS011;42608;52.776;6.968;2023-07-22T13:29:01;7.65;;;6.53;;
56724;SDS011;42608;52.776;6.968;2023-07-22T13:31:26;7.32;;;6.63;;
56724;SDS011;42608;52.776;6.968;2023-07-22T13:33:52;8.85;;;6.45;;
56724;SDS011;42608;52.776;6.968;2023-07-22T13:36:17;8.43;;;5.97;;
56724;SDS011;42608;52.776;6.968;2023-07-22T13:38:43;7.72;;;6.85;;
56724;SDS011;42608;52.776;6.968;2023-07-22T13:41:12;7.72;;;6.28;;
56724;SDS011;42608;52.776;6.968;2023-07-22T13:43:37;6.43;;;5.82;;
56724;SDS011;42608;52.776;6.968;2023-07-22T13:46:03;7.78;;;6.95;;
56724;SDS011;42608;52.776;6.968;2023-07-22T13:48:32;7.35;;;6.65;;
56724;SDS011;42608;52.776;6.968;2023-07-22T13:50:57;8.45;;;6.65;;
56724;SDS011;42608;52.776;6.968;2023-07-22T13:53:23;7.90;;;7.00;;
56724;SDS011;42608;52.776;6.968;2023-07-22T13:55:49;8.20;;;7.40;;
56724;SDS011;42608;52.776;6.968;2023-07-22T13:58:14;8.60;;;7.88;;
56724;SDS011;42608;52.776;6.968;2023-07-22T14:00:40;8.05;;;7.30;;
56724;SDS011;42608;52.776;6.968;2023-07-22T14:03:06;7.72;;;6.93;;
56724;SDS011;42608;52.776;6.968;2023-07-22T14:05:35;8.05;;;7.35;;
56724;SDS011;42608;52.776;6.968;2023-07-22T14:08:01;7.97;;;7.18;;
56724;SDS011;42608;52.776;6.968;2023-07-22T14:10:26;9.15;;;8.25;;
56724;SDS011;42608;52.776;6.968;2023-07-22T14:12:52;8.95;;;8.15;;
56724;SDS011;42608;52.776;6.968;2023-07-22T14:15:18;9.20;;;8.02;;
56724;SDS011;42608;52.776;6.968;2023-07-22T14:17:43;9.00;;;7.05;;
56724;SDS011;42608;52.776;6.968;2023-07-22T14:20:09;9.13;;;7.88;;
56724;SDS011;42608;52.776;6.968;2023-07-22T14:22:36;8.93;;;8.13;;
56724;SDS011;42608;52.776;6.968;2023-07-22T14:25:02;11.70;;;8.48;;
56724;SDS011;42608;52.776;6.968;2023-07-22T14:27:28;9.43;;;8.45;;
56724;SDS011;42608;52.776;6.968;2023-07-22T14:29:54;9.05;;;8.27;;
56724;SDS011;42608;52.776;6.968;2023-07-22T14:32:40;9.68;;;8.75;;
56724;SDS011;42608;52.776;6.968;2023-07-22T14:35:11;10.90;;;9.90;;
56724;SDS011;42608;52.776;6.968;2023-07-22T14:37:37;10.45;;;9.45;;
56724;SDS011;42608;52.776;6.968;2023-07-22T14:40:03;11.50;;;10.32;;
56724;SDS011;42608;52.776;6.968;2023-07-22T14:42:32;14.05;;;11.75;;
56724;SDS011;42608;52.776;6.968;2023-07-22T14:44:58;12.20;;;11.00;;
56724;SDS011;42608;52.776;6.968;2023-07-22T14:47:24;15.98;;;11.35;;
56724;SDS011;42608;52.776;6.968;2023-07-22T14:49:50;12.60;;;11.48;;
56724;SDS011;42608;52.776;6.968;2023-07-22T14:52:16;14.30;;;11.45;;
56724;SDS011;42608;52.776;6.968;2023-07-22T14:54:41;11.98;;;10.88;;
56724;SDS011;42608;52.776;6.968;2023-07-22T14:57:07;12.13;;;10.85;;
56724;SDS011;42608;52.776;6.968;2023-07-22T14:59:33;11.90;;;10.60;;
56724;SDS011;42608;52.776;6.968;2023-07-22T15:02:01;14.95;;;11.85;;
56724;SDS011;42608;52.776;6.968;2023-07-22T15:04:29;13.02;;;10.80;;
56724;SDS011;42608;52.776;6.968;2023-07-22T15:06:56;14.35;;;12.32;;
56724;SDS011;42608;52.776;6.968;2023-07-22T15:09:22;14.60;;;11.68;;
56724;SDS011;42608;52.776;6.968;2023-07-22T15:11:48;12.85;;;10.90;;
56724;SDS011;42608;52.776;6.968;2023-07-22T15:14:13;10.73;;;9.63;;
56724;SDS011;42608;52.776;6.968;2023-07-22T15:16:39;12.30;;;10.95;;
56724;SDS011;42608;52.776;6.968;2023-07-22T15:19:06;10.73;;;9.63;;
56724;SDS011;42608;52.776;6.968;2023-07-22T15:21:32;11.27;;;9.88;;
56724;SDS011;42608;52.776;6.968;2023-07-22T15:23:58;11.23;;;10.02;;
56724;SDS011;42608;52.776;6.968;2023-07-22T15:26:24;11.23;;;10.13;;
56724;SDS011;42608;52.776;6.968;2023-07-22T15:28:50;10.13;;;9.10;;
56724;SDS011;42608;52.776;6.968;2023-07-22T15:31:19;10.63;;;9.52;;
56724;SDS011;42608;52.776;6.968;2023-07-22T15:33:46;9.90;;;9.00;;
56724;SDS011;42608;52.776;6.968;2023-07-22T15:36:11;10.30;;;9.27;;
56724;SDS011;42608;52.776;6.968;2023-07-22T15:38:37;13.45;;;10.45;;
56724;SDS011;42608;52.776;6.968;2023-07-22T15:41:03;11.23;;;9.48;;
56724;SDS011;42608;52.776;6.968;2023-07-22T15:43:38;10.70;;;9.70;;
56724;SDS011;42608;52.776;6.968;2023-07-22T15:46:03;10.43;;;9.43;;
56724;SDS011;42608;52.776;6.968;2023-07-22T15:48:29;14.88;;;10.15;;
56724;SDS011;42608;52.776;6.968;2023-07-22T15:50:56;10.27;;;9.15;;
56724;SDS011;42608;52.776;6.968;2023-07-22T15:53:21;11.38;;;9.77;;
56724;SDS011;42608;52.776;6.968;2023-07-22T15:55:47;12.60;;;9.45;;
56724;SDS011;42608;52.776;6.968;2023-07-22T15:58:16;11.45;;;10.27;;
56724;SDS011;42608;52.776;6.968;2023-07-22T16:00:42;13.82;;;9.60;;
56724;SDS011;42608;52.776;6.968;2023-07-22T16:03:08;10.45;;;9.35;;
56724;SDS011;42608;52.776;6.968;2023-07-22T16:05:35;11.77;;;9.65;;
56724;SDS011;42608;52.776;6.968;2023-07-22T16:08:00;11.07;;;9.93;;
56724;SDS011;42608;52.776;6.968;2023-07-22T16:10:26;11.50;;;10.02;;
56724;SDS011;42608;52.776;6.968;2023-07-22T16:12:52;11.82;;;10.27;;
56724;SDS011;42608;52.776;6.968;2023-07-22T16:15:18;11.73;;;10.18;;
56724;SDS011;42608;52.776;6.968;2023-07-22T16:17:43;13.55;;;9.95;;
56724;SDS011;42608;52.776;6.968;2023-07-22T16:20:09;11.10;;;10.05;;
56724;SDS011;42608;52.776;6.968;2023-07-22T16:22:38;11.18;;;10.07;;
56724;SDS011;42608;52.776;6.968;2023-07-22T16:25:04;11.65;;;9.35;;
56724;SDS011;42608;52.776;6.968;2023-07-22T16:27:30;11.25;;;9.70;;
56724;SDS011;42608;52.776;6.968;2023-07-22T16:29:56;10.77;;;9.68;;
56724;SDS011;42608;52.776;6.968;2023-07-22T16:32:22;11.90;;;9.20;;
56724;SDS011;42608;52.776;6.968;2023-07-22T16:34:47;10.50;;;9.43;;
56724;SDS011;42608;52.776;6.968;2023-07-22T16:37:16;10.40;;;9.32;;
56724;SDS011;42608;52.776;6.968;2023-07-22T16:39:42;13.65;;;9.85;;
56724;SDS011;42608;52.776;6.968;2023-07-22T16:42:08;10.18;;;9.18;;
56724;SDS011;42608;52.776;6.968;2023-07-22T16:44:34;11.45;;;9.05;;
56724;SDS011;42608;52.776;6.968;2023-07-22T16:47:02;10.52;;;9.45;;
56724;SDS011;42608;52.776;6.968;2023-07-22T16:49:31;10.00;;;8.77;;
56724;SDS011;42608;52.776;6.968;2023-07-22T16:51:57;9.73;;;8.65;;
56724;SDS011;42608;52.776;6.968;2023-07-22T16:54:29;12.00;;;8.68;;
56724;SDS011;42608;52.776;6.968;2023-07-22T16:56:54;9.35;;;8.45;;
56724;SDS011;42608;52.776;6.968;2023-07-22T16:59:20;10.55;;;9.45;;
56724;SDS011;42608;52.776;6.968;2023-07-22T17:01:46;12.63;;;8.93;;
56724;SDS011;42608;52.776;6.968;2023-07-22T17:04:11;9.40;;;8.60;;
56724;SDS011;42608;52.776;6.968;2023-07-22T17:06:37;14.75;;;9.93;;
56724;SDS011;42608;52.776;6.968;2023-07-22T17:09:03;10.10;;;8.85;;
56724;SDS011;42608;52.776;6.968;2023-07-22T17:11:28;9.65;;;8.68;;
56724;SDS011;42608;52.776;6.968;2023-07-22T17:13:55;12.55;;;8.73;;
56724;SDS011;42608;52.776;6.968;2023-07-22T17:16:23;10.25;;;9.15;;
56724;SDS011;42608;52.776;6.968;2023-07-22T17:18:49;9.57;;;8.77;;
56724;SDS011;42608;52.776;6.968;2023-07-22T17:21:14;10.52;;;9.15;;
56724;SDS011;42608;52.776;6.968;2023-07-22T17:23:41;10.25;;;9.25;;
